Time;durP1;ratioP1;P1;durP2;ratioP2;P2;SDS_P1;SDS_P2;PMS_P1;PMS_P2;Temp;Humidity;BMP_temperature;BMP_pressure;BME280_temperature;BME280_humidity;BME280_pressure;Samples;Min_cycle;Max_cycle;Signal;HPM_P1;HPM_P2
2022/04/01 00:01:50;;;;;;;1.00;0.90;;;4.20;99.90;;;;;;5024635;28;20268;-83
2022/04/01 00:04:17;;;;;;;0.93;0.93;;;4.20;99.90;;;;;;5023993;28;20201;-83
2022/04/01 00:06:42;;;;;;;0.47;0.47;;;4.10;99.90;;;;;;5021117;28;20992;-83
2022/04/01 00:09:08;;;;;;;0.43;0.43;;;4.20;99.90;;;;;;5023025;28;20192;-83
2022/04/01 00:11:34;;;;;;;1.13;0.50;;;4.10;99.90;;;;;;5024066;28;20186;-82
2022/04/01 00:13:59;;;;;;;1.03;0.43;;;4.30;99.90;;;;;;5026237;28;20187;-83
2022/04/01 00:16:25;;;;;;;0.93;0.83;;;4.30;99.90;;;;;;5024793;28;20229;-83
2022/04/01 00:18:50;;;;;;;0.73;0.43;;;4.20;99.90;;;;;;5025581;28;20186;-84
2022/04/01 00:21:16;;;;;;;1.10;1.00;;;4.30;99.90;;;;;;5024888;28;20684;-84
2022/04/01 00:23:42;;;;;;;1.87;0.63;;;4.30;99.90;;;;;;5024384;28;20180;-84
2022/04/01 00:26:07;;;;;;;0.77;0.70;;;4.40;99.90;;;;;;5025422;28;20213;-83
2022/04/01 00:28:33;;;;;;;0.97;0.60;;;4.40;99.90;;;;;;5024161;28;20182;-83
2022/04/01 00:30:58;;;;;;;0.50;0.50;;;4.40;99.90;;;;;;5026737;28;20196;-83
2022/04/01 00:33:24;;;;;;;1.03;0.40;;;4.50;99.90;;;;;;5025201;28;20209;-84
2022/04/01 00:35:50;;;;;;;0.77;0.77;;;4.60;99.90;;;;;;5025139;28;20212;-84
2022/04/01 00:38:16;;;;;;;0.20;0.20;;;4.50;99.90;;;;;;5025929;28;20610;-83
2022/04/01 00:40:41;;;;;;;0.77;0.77;;;4.40;99.90;;;;;;5025048;28;20207;-83
2022/04/01 00:43:07;;;;;;;0.20;0.20;;;4.40;99.90;;;;;;5024535;28;20679;-84
2022/04/01 00:45:33;;;;;;;0.90;0.90;;;4.30;99.90;;;;;;5019951;28;20217;-84
2022/04/01 00:48:02;;;;;;;0.37;0.37;;;4.30;99.90;;;;;;5022676;28;20190;-84
2022/04/01 00:50:32;;;;;;;2.07;0.70;;;4.20;99.90;;;;;;5032561;28;20249;-83
2022/04/01 00:52:59;;;;;;;0.97;0.97;;;4.20;99.90;;;;;;5033041;28;20185;-83
2022/04/01 00:55:27;;;;;;;0.90;0.70;;;4.10;99.90;;;;;;5032986;28;20204;-83
2022/04/01 00:57:52;;;;;;;0.77;0.60;;;4.10;99.90;;;;;;5032348;28;20192;-83
2022/04/01 01:00:19;;;;;;;3.70;1.20;;;4.10;99.90;;;;;;5032048;28;20570;-83
2022/04/01 01:02:45;;;;;;;0.57;0.57;;;4.00;99.90;;;;;;5033148;28;20280;-83
2022/04/01 01:05:11;;;;;;;2.20;0.63;;;4.00;99.90;;;;;;5032946;28;20278;-83
2022/04/01 01:07:42;;;;;;;0.50;0.50;;;4.00;99.90;;;;;;5029539;28;20188;-84
2022/04/01 01:10:10;;;;;;;0.57;0.57;;;3.90;99.90;;;;;;5032070;28;20210;-84
2022/04/01 01:12:37;;;;;;;0.93;0.93;;;3.90;99.90;;;;;;5030756;28;20205;-85
2022/04/01 01:15:10;;;;;;;2.00;0.80;;;4.00;99.90;;;;;;5033989;28;20296;-83
2022/04/01 01:17:39;;;;;;;0.43;0.43;;;3.90;99.90;;;;;;5033690;28;20258;-83
2022/04/01 01:20:12;;;;;;;1.13;1.03;;;3.90;99.90;;;;;;5035976;28;20207;-83
2022/04/01 01:22:42;;;;;;;0.70;0.70;;;3.80;99.90;;;;;;5034238;28;20225;-84
2022/04/01 01:25:09;;;;;;;1.13;1.10;;;3.80;99.90;;;;;;5036323;28;20259;-83
2022/04/01 01:27:35;;;;;;;0.87;0.50;;;3.80;99.90;;;;;;5034212;28;20753;-84
2022/04/01 01:30:02;;;;;;;0.80;0.77;;;3.80;99.90;;;;;;5034864;28;20196;-83
2022/04/01 01:32:29;;;;;;;0.93;0.70;;;3.80;99.90;;;;;;5032876;28;20206;-84
2022/04/01 01:34:58;;;;;;;0.20;0.20;;;3.80;99.90;;;;;;5035091;28;20270;-84
2022/04/01 01:37:24;;;;;;;0.67;0.67;;;3.80;99.90;;;;;;5034111;28;20186;-83
2022/04/01 01:39:49;;;;;;;1.30;0.67;;;3.70;99.90;;;;;;5035097;28;20219;-83
2022/04/01 01:42:15;;;;;;;0.90;0.50;;;3.80;99.90;;;;;;5035161;28;20249;-83
2022/04/01 01:44:41;;;;;;;0.57;0.57;;;3.70;99.90;;;;;;5036376;28;20189;-83
2022/04/01 01:47:07;;;;;;;0.67;0.67;;;3.70;99.90;;;;;;5032694;28;20904;-83
2022/04/01 01:49:33;;;;;;;0.83;0.57;;;3.70;99.90;;;;;;5035550;28;20204;-83
2022/04/01 01:54:44;;;;;;;0.63;0.63;;;3.80;99.90;;;;;;5037470;28;20203;-83
2022/04/01 01:57:12;;;;;;;0.90;0.90;;;3.80;99.90;;;;;;5038283;28;20211;-84
2022/04/01 01:59:38;;;;;;;0.67;0.67;;;3.80;99.90;;;;;;5032989;28;20191;-83
2022/04/01 02:02:08;;;;;;;2.30;0.33;;;3.70;99.90;;;;;;5035719;28;20189;-84
2022/04/01 02:04:34;;;;;;;0.60;0.60;;;3.70;99.90;;;;;;5035115;28;20171;-84
2022/04/01 02:07:00;;;;;;;0.60;0.40;;;3.90;99.90;;;;;;5033481;28;20223;-84
2022/04/01 02:09:26;;;;;;;0.67;0.67;;;3.80;99.90;;;;;;5032958;28;20202;-84
2022/04/01 02:11:52;;;;;;;0.33;0.33;;;3.90;99.90;;;;;;5031927;28;20619;-83
2022/04/01 02:14:17;;;;;;;0.27;0.27;;;3.80;99.90;;;;;;5033157;28;20211;-84
2022/04/01 02:16:43;;;;;;;0.80;0.80;;;3.70;99.90;;;;;;5030467;28;20212;-83
2022/04/01 02:19:16;;;;;;;1.53;0.93;;;3.60;99.90;;;;;;5030079;28;20191;-83
2022/04/01 02:21:41;;;;;;;0.60;0.27;;;3.60;99.90;;;;;;5033266;28;20203;-84
2022/04/01 02:24:10;;;;;;;0.70;0.70;;;3.70;99.90;;;;;;5033527;28;20261;-83
2022/04/01 02:26:36;;;;;;;0.60;0.60;;;3.70;99.90;;;;;;5032406;28;20204;-83
2022/04/01 02:29:03;;;;;;;0.43;0.43;;;3.60;99.90;;;;;;5032909;28;20233;-83
2022/04/01 02:31:30;;;;;;;0.97;0.50;;;3.70;99.90;;;;;;5032670;28;20274;-84
2022/04/01 02:33:56;;;;;;;1.00;0.67;;;3.70;99.90;;;;;;5031761;28;20197;-84
2022/04/01 02:36:22;;;;;;;1.17;0.97;;;3.60;99.90;;;;;;5031256;28;20219;-84
2022/04/01 02:38:49;;;;;;;0.60;0.60;;;3.50;99.90;;;;;;5030539;28;20183;-84
2022/04/01 02:41:15;;;;;;;0.20;0.20;;;3.50;99.90;;;;;;5034006;28;20222;-84
2022/04/01 02:43:41;;;;;;;2.47;0.70;;;3.60;99.90;;;;;;5033073;28;20727;-83
2022/04/01 02:46:10;;;;;;;0.83;0.40;;;3.60;99.90;;;;;;5031434;28;20756;-84
2022/04/01 02:48:36;;;;;;;1.17;1.17;;;3.70;99.90;;;;;;5031751;28;20187;-83
2022/04/01 02:51:02;;;;;;;0.60;0.57;;;3.60;99.90;;;;;;5032528;28;20197;-84
2022/04/01 02:53:27;;;;;;;0.20;0.20;;;3.60;99.90;;;;;;5033899;28;20223;-84
2022/04/01 02:55:53;;;;;;;0.50;0.50;;;3.60;99.90;;;;;;5034023;28;20838;-83
2022/04/01 02:58:20;;;;;;;0.70;0.70;;;3.70;99.90;;;;;;5032886;28;20193;-84
2022/04/01 03:00:45;;;;;;;0.40;0.40;;;3.70;99.90;;;;;;5030235;28;20215;-84
2022/04/01 03:03:11;;;;;;;0.50;0.50;;;3.60;99.90;;;;;;5023671;28;20684;-84
2022/04/01 03:05:39;;;;;;;1.00;0.90;;;3.60;99.90;;;;;;5022586;28;20219;-84
2022/04/01 03:08:05;;;;;;;5.67;1.33;;;3.50;99.90;;;;;;5024174;28;20184;-83
2022/04/01 03:10:36;;;;;;;0.77;0.77;;;3.50;99.90;;;;;;5022725;28;20213;-84
2022/04/01 03:13:03;;;;;;;0.63;0.63;;;3.50;99.90;;;;;;5023282;28;20224;-83
2022/04/01 03:15:29;;;;;;;1.03;1.00;;;3.50;99.90;;;;;;5023114;28;20219;-84
2022/04/01 03:17:58;;;;;;;0.43;0.43;;;3.50;99.90;;;;;;5024021;28;20252;-83
2022/04/01 03:20:25;;;;;;;0.80;0.50;;;3.40;99.90;;;;;;5023395;28;20204;-84
2022/04/01 03:22:50;;;;;;;0.33;0.33;;;3.40;99.90;;;;;;5024113;28;20187;-84
2022/04/01 03:25:20;;;;;;;1.03;0.57;;;3.40;99.90;;;;;;5024352;28;20249;-84
2022/04/01 03:27:47;;;;;;;0.70;0.70;;;3.40;99.90;;;;;;5023271;28;21128;-84
2022/04/01 03:30:14;;;;;;;0.50;0.50;;;3.40;99.90;;;;;;5023404;28;20340;-84
2022/04/01 03:32:41;;;;;;;0.57;0.57;;;3.40;99.90;;;;;;5023330;28;20201;-83
2022/04/01 03:35:15;;;;;;;0.50;0.40;;;3.40;99.90;;;;;;5023232;28;20238;-83
2022/04/01 03:37:41;;;;;;;0.33;0.33;;;3.50;99.90;;;;;;5025302;28;20673;-83
2022/04/01 03:40:08;;;;;;;0.47;0.33;;;3.40;99.90;;;;;;5020754;28;20215;-83
2022/04/01 03:42:34;;;;;;;0.40;0.40;;;3.40;99.90;;;;;;5022981;28;20190;-83
2022/04/01 03:45:06;;;;;;;0.30;0.30;;;3.40;99.90;;;;;;5022894;28;20184;-84
2022/04/01 03:47:51;;;;;;;0.80;0.80;;;3.50;99.90;;;;;;5021850;28;20563;-84
2022/04/01 03:50:21;;;;;;;0.33;0.33;;;3.40;99.90;;;;;;5023298;28;20191;-84
2022/04/01 03:52:48;;;;;;;0.70;0.53;;;3.50;99.90;;;;;;5021129;28;20185;-83
2022/04/01 03:55:14;;;;;;;1.23;1.23;;;3.40;99.90;;;;;;5023604;28;20222;-83
2022/04/01 03:57:41;;;;;;;1.17;1.17;;;3.50;99.90;;;;;;5024177;28;20179;-84
2022/04/01 04:00:12;;;;;;;0.97;0.97;;;3.70;99.90;;;;;;5032325;28;20206;-84
2022/04/01 04:02:40;;;;;;;0.87;0.83;;;3.70;99.90;;;;;;5023410;28;20171;-84
2022/04/01 04:05:07;;;;;;;0.67;0.67;;;3.70;99.90;;;;;;5021253;28;20252;-84
2022/04/01 04:07:33;;;;;;;0.70;0.70;;;3.70;99.90;;;;;;5021950;28;20259;-84
2022/04/01 04:09:59;;;;;;;0.70;0.70;;;3.70;99.90;;;;;;5022972;28;20271;-83
2022/04/01 04:12:27;;;;;;;0.80;0.80;;;3.70;99.90;;;;;;5022282;28;20198;-83
2022/04/01 04:14:54;;;;;;;0.83;0.83;;;3.70;99.90;;;;;;5021851;28;20194;-84
2022/04/01 04:17:31;;;;;;;2.10;1.03;;;3.70;99.90;;;;;;5021130;28;20250;-84
2022/04/01 04:20:02;;;;;;;0.47;0.47;;;3.60;99.90;;;;;;5022196;28;20233;-84
2022/04/01 04:22:45;;;;;;;0.20;0.20;;;3.70;99.90;;;;;;5021997;28;20290;-84
2022/04/01 04:25:14;;;;;;;0.67;0.67;;;3.50;99.90;;;;;;5020954;28;20215;-83
2022/04/01 04:27:51;;;;;;;0.73;0.50;;;3.60;99.90;;;;;;5022517;28;20213;-83
2022/04/01 04:30:18;;;;;;;1.57;0.57;;;3.50;99.90;;;;;;5020575;28;20734;-83
2022/04/01 04:33:02;;;;;;;0.53;0.50;;;3.50;99.90;;;;;;5021427;28;20248;-84
2022/04/01 04:35:29;;;;;;;0.67;0.60;;;3.50;99.90;;;;;;5023690;28;20630;-82
2022/04/01 04:37:57;;;;;;;0.63;0.63;;;3.40;99.90;;;;;;5021935;28;20195;-84
2022/04/01 04:40:23;;;;;;;0.53;0.53;;;3.50;99.90;;;;;;5021574;28;20211;-84
2022/04/01 04:42:49;;;;;;;2.97;0.93;;;3.50;99.90;;;;;;5020533;28;20246;-83
2022/04/01 04:45:19;;;;;;;0.40;0.40;;;3.50;99.90;;;;;;5023999;28;20311;-84
2022/04/01 04:47:46;;;;;;;0.30;0.30;;;3.50;99.90;;;;;;5020764;28;20183;-84
2022/04/01 04:50:13;;;;;;;2.83;0.70;;;3.60;99.90;;;;;;5021376;28;20220;-84
2022/04/01 04:52:44;;;;;;;0.20;0.20;;;3.50;99.90;;;;;;5022080;28;20530;-84
2022/04/01 04:55:13;;;;;;;0.70;0.70;;;3.60;99.90;;;;;;5022243;28;20211;-83
2022/04/01 04:57:41;;;;;;;1.03;1.03;;;3.70;99.90;;;;;;5022982;28;20207;-82
2022/04/01 05:00:07;;;;;;;0.20;0.20;;;3.80;99.90;;;;;;5024382;28;20215;-82
2022/04/01 05:03:07;;;;;;;0.47;0.47;;;3.80;99.90;;;;;;5024825;28;20321;-82
2022/04/01 05:05:45;;;;;;;1.13;0.87;;;3.80;99.90;;;;;;5024317;28;20219;-82
2022/04/01 05:08:11;;;;;;;0.30;0.30;;;3.70;99.90;;;;;;5023019;28;20202;-82
2022/04/01 05:11:00;;;;;;;0.87;0.50;;;3.70;99.90;;;;;;5026314;28;20656;-83
2022/04/01 05:13:51;;;;;;;0.40;0.33;;;3.60;99.90;;;;;;5012616;28;20215;-82
2022/04/01 05:16:36;;;;;;;0.53;0.53;;;3.70;99.90;;;;;;5026144;28;20755;-82
2022/04/01 05:19:08;;;;;;;0.37;0.33;;;3.70;99.90;;;;;;5026234;28;20226;-82
2022/04/01 05:21:57;;;;;;;0.20;0.20;;;3.80;99.90;;;;;;5026580;28;20297;-82
2022/04/01 05:25:02;;;;;;;0.20;0.20;;;3.80;99.90;;;;;;5020822;28;20202;-81
2022/04/01 05:27:37;;;;;;;0.47;0.47;;;3.60;99.90;;;;;;4984833;28;20684;-80
2022/04/01 05:30:02;;;;;;;2.77;0.60;;;3.70;99.90;;;;;;4987432;28;20275;-80
2022/04/01 05:32:38;;;;;;;0.80;0.73;;;3.60;99.90;;;;;;5005613;28;20329;-81
2022/04/01 05:35:04;;;;;;;0.23;0.17;;;3.50;99.90;;;;;;5018938;28;20304;-81
2022/04/01 05:37:34;;;;;;;0.20;0.20;;;3.60;99.90;;;;;;5020718;28;20184;-81
2022/04/01 05:40:05;;;;;;;0.93;0.93;;;3.60;99.90;;;;;;5024487;28;20205;-81
2022/04/01 05:42:32;;;;;;;1.43;0.60;;;3.50;99.90;;;;;;5024610;28;20662;-81
2022/04/01 05:44:59;;;;;;;0.47;0.47;;;3.50;99.90;;;;;;5026076;28;20175;-80
2022/04/01 05:47:26;;;;;;;0.70;0.70;;;3.60;99.90;;;;;;5025925;28;20174;-81
2022/04/01 05:49:56;;;;;;;0.90;0.90;;;3.60;99.90;;;;;;5024721;28;20187;-81
2022/04/01 05:52:22;;;;;;;0.33;0.33;;;3.60;99.90;;;;;;5027445;28;20182;-83
2022/04/01 05:54:49;;;;;;;0.10;0.10;;;3.60;99.90;;;;;;5026854;28;20863;-82
2022/04/01 05:57:18;;;;;;;0.73;0.73;;;3.60;99.90;;;;;;5025972;28;20611;-82
2022/04/01 05:59:44;;;;;;;0.43;0.43;;;3.60;99.90;;;;;;5025371;28;20183;-82
2022/04/01 06:02:32;;;;;;;2.90;0.40;;;3.60;99.90;;;;;;5027457;28;20199;-81
2022/04/01 06:05:03;;;;;;;0.47;0.40;;;3.50;99.90;;;;;;5028741;28;20184;-82
2022/04/01 06:07:57;;;;;;;0.53;0.50;;;3.60;99.90;;;;;;5025749;28;20191;-82
2022/04/01 06:10:49;;;;;;;0.63;0.63;;;3.50;99.90;;;;;;5024726;28;20188;-82
2022/04/01 06:13:34;;;;;;;0.53;0.47;;;3.60;99.90;;;;;;5024539;28;20183;-82
2022/04/01 06:16:11;;;;;;;4.20;0.93;;;3.60;99.90;;;;;;5026828;28;20260;-81
2022/04/01 06:18:58;;;;;;;0.30;0.30;;;3.60;99.90;;;;;;5022396;28;20184;-82
2022/04/01 06:21:26;;;;;;;0.77;0.57;;;3.50;99.90;;;;;;5033506;28;20225;-82
2022/04/01 06:24:20;;;;;;;0.83;0.83;;;3.40;99.90;;;;;;5025446;28;20183;-81
2022/04/01 06:27:00;;;;;;;0.67;0.60;;;3.60;99.90;;;;;;5024232;28;20266;-81
2022/04/01 06:29:33;;;;;;;1.23;1.13;;;3.50;99.90;;;;;;5025741;28;20199;-81
2022/04/01 06:35:00;;;;;;;0.67;0.67;;;3.50;99.90;;;;;;5342339;22;20236;-79
2022/04/01 06:37:29;;;;;;;0.83;0.60;;;3.30;99.90;;;;;;4985516;28;20196;-79
2022/04/01 06:40:10;;;;;;;0.53;0.53;;;3.40;99.90;;;;;;4969720;28;20286;-79
2022/04/01 06:42:39;;;;;;;0.60;0.60;;;3.40;99.90;;;;;;5001180;28;20191;-80
2022/04/01 06:45:10;;;;;;;1.53;1.43;;;3.40;99.90;;;;;;4986453;28;20216;-79
2022/04/01 06:47:41;;;;;;;0.33;0.33;;;3.50;99.90;;;;;;4985249;28;20573;-79
2022/04/01 06:50:09;;;;;;;0.87;0.87;;;3.40;99.90;;;;;;4976503;28;20192;-79
2022/04/01 06:52:35;;;;;;;0.93;0.80;;;3.40;99.90;;;;;;4984740;28;20191;-80
2022/04/01 06:55:01;;;;;;;0.53;0.30;;;3.50;99.90;;;;;;4984840;28;20216;-79
2022/04/01 06:57:27;;;;;;;0.60;0.60;;;3.40;99.90;;;;;;4984919;28;20194;-79
2022/04/01 06:59:52;;;;;;;2.43;1.17;;;3.50;99.90;;;;;;4986257;28;20720;-79
2022/04/01 07:02:18;;;;;;;1.50;0.97;;;3.60;99.90;;;;;;4984550;28;20271;-79
2022/04/01 07:04:44;;;;;;;0.33;0.33;;;3.50;99.90;;;;;;4982777;28;20500;-79
2022/04/01 07:07:09;;;;;;;0.10;0.10;;;3.50;99.90;;;;;;4984481;28;20184;-79
2022/04/01 07:09:36;;;;;;;0.73;0.73;;;3.60;99.90;;;;;;4984875;28;20179;-80
2022/04/01 07:12:02;;;;;;;1.67;0.70;;;3.50;99.90;;;;;;4984748;28;20701;-80
2022/04/01 07:14:28;;;;;;;1.03;0.97;;;3.50;99.90;;;;;;4984282;28;20548;-79
2022/04/01 07:16:55;;;;;;;2.00;0.80;;;3.40;99.90;;;;;;4983746;28;20247;-79
2022/04/01 07:19:21;;;;;;;0.60;0.60;;;3.40;99.90;;;;;;4983830;28;20545;-79
2022/04/01 07:21:46;;;;;;;2.03;0.40;;;3.40;99.90;;;;;;4993688;28;20851;-79
2022/04/01 07:24:12;;;;;;;0.87;0.63;;;3.40;99.90;;;;;;4985153;28;20203;-79
2022/04/01 07:26:39;;;;;;;0.30;0.30;;;3.40;99.90;;;;;;4987751;28;20192;-81
2022/04/01 07:29:06;;;;;;;0.30;0.30;;;3.40;99.90;;;;;;4986855;28;20188;-81
2022/04/01 07:34:36;;;;;;;0.23;0.23;;;3.50;99.90;;;;;;4987740;28;20312;-81
2022/04/01 07:37:02;;;;;;;0.33;0.33;;;3.40;99.90;;;;;;4987851;28;20203;-82
2022/04/01 07:39:28;;;;;;;0.23;0.23;;;3.40;99.90;;;;;;4986196;28;20191;-81
2022/04/01 07:41:54;;;;;;;1.30;1.20;;;3.50;99.90;;;;;;4987490;28;20225;-82
2022/04/01 07:44:20;;;;;;;0.20;0.20;;;3.50;99.90;;;;;;4986990;28;20200;-81
2022/04/01 07:46:46;;;;;;;0.63;0.37;;;3.60;99.90;;;;;;4988839;28;20177;-81
2022/04/01 07:49:11;;;;;;;0.43;0.43;;;3.70;99.90;;;;;;4988729;28;20555;-82
2022/04/01 07:51:38;;;;;;;2.37;0.40;;;3.70;99.90;;;;;;4987553;28;20188;-82
2022/04/01 07:54:03;;;;;;;0.40;0.40;;;3.60;99.90;;;;;;4986026;28;20213;-80
2022/04/01 07:56:31;;;;;;;0.33;0.33;;;3.60;99.90;;;;;;4987714;28;20212;-81
2022/04/01 07:59:00;;;;;;;0.40;0.40;;;3.60;99.90;;;;;;4986864;28;20568;-82
2022/04/01 08:01:26;;;;;;;0.90;0.50;;;3.60;99.90;;;;;;4986245;28;20204;-81
2022/04/01 08:03:52;;;;;;;0.60;0.30;;;3.40;99.90;;;;;;4986490;28;20287;-81
2022/04/01 08:06:18;;;;;;;0.80;0.70;;;3.30;99.90;;;;;;4986618;28;20263;-81
2022/04/01 08:08:43;;;;;;;0.33;0.33;;;3.40;99.90;;;;;;4987171;28;20211;-81
2022/04/01 08:11:09;;;;;;;0.50;0.50;;;3.30;99.90;;;;;;4985892;28;20551;-81
2022/04/01 08:13:34;;;;;;;0.57;0.57;;;3.50;99.90;;;;;;4987389;28;20196;-81
2022/04/01 08:16:00;;;;;;;1.77;1.63;;;3.70;99.90;;;;;;4987326;28;20616;-82
2022/04/01 08:18:26;;;;;;;0.83;0.73;;;3.50;99.90;;;;;;4996119;28;20215;-82
2022/04/01 08:20:52;;;;;;;0.47;0.47;;;3.50;99.90;;;;;;4988557;28;20307;-82
2022/04/01 08:23:19;;;;;;;0.40;0.40;;;3.40;99.90;;;;;;4986311;28;20822;-82
2022/04/01 08:25:45;;;;;;;0.70;0.70;;;3.40;99.90;;;;;;4988442;28;20184;-82
2022/04/01 08:28:11;;;;;;;0.50;0.33;;;3.50;99.90;;;;;;4987485;28;20184;-81
2022/04/01 08:30:36;;;;;;;0.33;0.33;;;3.40;99.90;;;;;;4986435;28;20188;-82
2022/04/01 08:33:02;;;;;;;0.73;0.50;;;3.40;99.90;;;;;;4987006;28;20188;-80
2022/04/01 08:35:28;;;;;;;1.33;1.23;;;3.50;99.90;;;;;;4991194;28;20197;-82
2022/04/01 08:37:55;;;;;;;0.93;0.93;;;3.70;99.90;;;;;;4989366;28;20381;-82
2022/04/01 08:40:21;;;;;;;0.70;0.70;;;3.60;99.90;;;;;;4989503;28;20263;-82
2022/04/01 08:42:48;;;;;;;1.93;1.50;;;3.70;99.90;;;;;;4990015;28;20179;-82
2022/04/01 08:45:18;;;;;;;0.40;0.40;;;3.80;99.90;;;;;;4987830;28;20204;-78
2022/04/01 08:47:44;;;;;;;0.70;0.70;;;3.70;99.90;;;;;;4988108;28;20185;-81
2022/04/01 08:50:10;;;;;;;0.37;0.37;;;3.60;99.90;;;;;;5005793;28;20182;-80
2022/04/01 08:52:35;;;;;;;0.40;0.40;;;3.60;99.90;;;;;;4988784;28;20279;-81
2022/04/01 08:55:06;;;;;;;0.77;0.77;;;3.60;99.90;;;;;;4988822;28;20296;-81
2022/04/01 08:57:39;;;;;;;0.63;0.60;;;3.70;99.90;;;;;;4991899;28;20718;-80
2022/04/01 09:00:11;;;;;;;0.70;0.70;;;3.50;99.90;;;;;;4992213;28;20581;-80
2022/04/01 09:02:37;;;;;;;0.97;0.80;;;3.60;99.90;;;;;;4994047;28;20259;-80
2022/04/01 09:05:06;;;;;;;0.70;0.70;;;3.60;99.90;;;;;;4993911;28;20238;-81
2022/04/01 09:07:32;;;;;;;0.20;0.10;;;3.50;99.90;;;;;;5007339;28;20184;-82
2022/04/01 09:10:03;;;;;;;0.47;0.47;;;3.50;99.90;;;;;;4988312;28;20223;-80
2022/04/01 09:12:29;;;;;;;0.60;0.57;;;3.50;99.90;;;;;;4992576;28;20213;-80
2022/04/01 09:14:56;;;;;;;0.70;0.70;;;3.50;99.90;;;;;;4991456;28;20238;-80
2022/04/01 09:17:38;;;;;;;0.40;0.37;;;3.40;99.90;;;;;;4992262;28;20196;-80
2022/04/01 09:20:09;;;;;;;3.83;0.67;;;3.40;99.90;;;;;;4991165;28;20294;-80
2022/04/01 09:22:35;;;;;;;0.30;0.30;;;3.50;99.90;;;;;;4993106;28;20247;-80
2022/04/01 09:25:10;;;;;;;0.30;0.30;;;3.50;99.90;;;;;;4991245;28;20201;-79
2022/04/01 09:27:56;;;;;;;0.77;0.40;;;3.50;99.90;;;;;;4985886;28;20184;-79
2022/04/01 09:30:27;;;;;;;0.10;0.10;;;3.60;99.90;;;;;;4985880;28;20196;-79
2022/04/01 09:32:57;;;;;;;0.47;0.40;;;3.40;99.90;;;;;;4986360;28;20175;-79
2022/04/01 09:35:29;;;;;;;0.40;0.40;;;3.50;99.90;;;;;;4985527;28;20208;-78
2022/04/01 09:38:09;;;;;;;0.27;0.27;;;3.30;99.90;;;;;;4980143;28;20208;-79
2022/04/01 09:40:37;;;;;;;5.20;0.30;;;3.30;99.90;;;;;;4985713;28;20214;-78
2022/04/01 09:43:02;;;;;;;0.60;0.60;;;3.30;99.90;;;;;;4986401;28;20187;-79
2022/04/01 09:45:35;;;;;;;0.30;0.30;;;3.10;99.90;;;;;;4985734;28;20180;-79
2022/04/01 09:48:03;;;;;;;1.47;1.37;;;3.20;99.90;;;;;;4986183;28;20184;-79
2022/04/01 09:50:33;;;;;;;0.40;0.40;;;3.30;99.90;;;;;;4986311;28;20193;-79
2022/04/01 09:53:05;;;;;;;0.13;0.13;;;3.30;99.90;;;;;;4976440;28;20618;-78
2022/04/01 09:55:35;;;;;;;0.27;0.27;;;3.30;99.90;;;;;;4985564;28;20739;-80
2022/04/01 09:58:02;;;;;;;0.40;0.40;;;3.40;99.90;;;;;;4985039;28;20366;-80
2022/04/01 10:00:28;;;;;;;0.57;0.57;;;3.40;99.90;;;;;;5001925;28;20206;-79
2022/04/01 10:02:53;;;;;;;0.53;0.53;;;3.40;99.90;;;;;;4986263;28;20649;-79
2022/04/01 10:05:19;;;;;;;0.50;0.50;;;3.40;99.90;;;;;;4987443;28;20269;-79
2022/04/01 10:07:45;;;;;;;0.10;0.10;;;3.40;99.90;;;;;;4986726;28;20187;-79
2022/04/01 10:10:11;;;;;;;0.23;0.23;;;3.40;99.90;;;;;;4987733;28;20188;-79
2022/04/01 10:12:41;;;;;;;0.60;0.50;;;3.30;99.90;;;;;;4986344;28;20267;-78
2022/04/01 10:15:08;;;;;;;0.30;0.30;;;3.50;99.90;;;;;;4984731;28;20240;-79
2022/04/01 10:17:37;;;;;;;1.53;0.97;;;3.70;99.90;;;;;;4984633;28;20194;-79
2022/04/01 10:20:03;;;;;;;0.30;0.30;;;3.70;99.90;;;;;;4985698;28;20215;-79
2022/04/01 10:22:29;;;;;;;0.37;0.37;;;3.50;99.90;;;;;;4985729;28;20184;-79
2022/04/01 10:25:02;;;;;;;0.87;0.87;;;3.60;99.90;;;;;;4984432;28;20327;-79
2022/04/01 10:27:40;;;;;;;0.23;0.23;;;3.70;99.90;;;;;;4994983;28;20176;-79
2022/04/01 10:30:14;;;;;;;0.93;0.60;;;3.70;99.90;;;;;;4987080;28;20188;-79
2022/04/01 10:32:44;;;;;;;0.43;0.30;;;3.90;99.90;;;;;;4984728;28;20186;-79
2022/04/01 10:35:26;;;;;;;0.23;0.23;;;3.80;99.90;;;;;;4985998;28;20225;-79
2022/04/01 10:38:15;;;;;;;0.40;0.40;;;3.90;99.90;;;;;;4985088;28;20185;-79
2022/04/01 10:40:43;;;;;;;0.70;0.70;;;3.70;99.90;;;;;;4984068;28;20385;-79
2022/04/01 10:43:30;;;;;;;0.50;0.47;;;3.60;99.90;;;;;;4984687;28;20208;-79
2022/04/01 10:46:14;;;;;;;0.60;0.60;;;3.60;99.90;;;;;;4984527;28;20185;-80
2022/04/01 10:52:11;;;;;;;0.10;0.10;;;4.10;99.90;;;;;;4949006;28;20264;-81
2022/04/01 10:54:42;;;;;;;0.73;0.53;;;4.00;99.90;;;;;;4985053;28;20194;-79
2022/04/01 10:57:10;;;;;;;0.10;0.10;;;3.80;99.90;;;;;;4999901;28;20635;-79
2022/04/01 10:59:42;;;;;;;0.67;0.67;;;3.60;99.90;;;;;;4985616;28;20180;-79
2022/04/01 11:02:09;;;;;;;0.33;0.33;;;3.50;99.90;;;;;;4984425;28;20181;-80
2022/04/01 11:04:40;;;;;;;0.30;0.30;;;3.60;99.90;;;;;;4984367;28;20205;-79
2022/04/01 11:07:12;;;;;;;0.57;0.30;;;3.70;99.90;;;;;;4984508;28;20183;-80
2022/04/01 11:09:54;;;;;;;0.47;0.47;;;3.80;99.90;;;;;;4984402;28;20191;-79
2022/04/01 11:12:32;;;;;;;0.90;0.90;;;3.80;99.90;;;;;;4982365;28;20212;-79
2022/04/01 11:15:07;;;;;;;0.13;0.13;;;3.70;99.90;;;;;;4974843;28;20212;-79
2022/04/01 11:17:44;;;;;;;0.43;0.43;;;3.70;99.90;;;;;;4985440;28;20299;-80
2022/04/01 11:20:27;;;;;;;0.67;0.40;;;3.90;99.90;;;;;;4984278;28;20234;-78
2022/04/01 11:22:53;;;;;;;0.10;0.10;;;3.70;99.90;;;;;;4984422;28;20184;-79
2022/04/01 11:25:25;;;;;;;0.50;0.50;;;3.60;99.90;;;;;;4984374;28;20201;-79
2022/04/01 11:27:51;;;;;;;0.10;0.10;;;3.30;99.90;;;;;;4985166;28;20242;-79
2022/04/01 11:30:22;;;;;;;0.30;0.30;;;3.50;99.90;;;;;;4977990;28;20230;-79
2022/04/01 11:32:53;;;;;;;0.70;0.40;;;3.70;99.90;;;;;;4998248;28;20180;-79
2022/04/01 11:35:22;;;;;;;0.20;0.20;;;3.60;99.90;;;;;;4987434;28;20313;-80
2022/04/01 11:37:49;;;;;;;2.10;0.57;;;3.70;99.90;;;;;;4976135;28;20649;-80
2022/04/01 11:40:25;;;;;;;0.20;0.20;;;3.50;99.90;;;;;;4983215;28;20205;-80
2022/04/01 11:43:11;;;;;;;0.27;0.20;;;3.30;99.90;;;;;;4983395;28;20176;-79
2022/04/01 11:45:45;;;;;;;0.20;0.20;;;3.40;99.90;;;;;;4983952;28;20667;-79
2022/04/01 11:48:27;;;;;;;0.27;0.27;;;3.70;99.90;;;;;;4984510;28;20213;-78
2022/04/01 11:50:59;;;;;;;2.77;0.57;;;3.70;99.90;;;;;;4985458;28;20439;-79
2022/04/01 11:53:26;;;;;;;0.20;0.20;;;4.00;99.90;;;;;;4977450;28;20203;-79
2022/04/01 11:55:53;;;;;;;0.10;0.10;;;3.70;99.90;;;;;;4985876;28;20198;-79
2022/04/01 11:58:20;;;;;;;0.33;0.33;;;3.80;99.90;;;;;;4984153;28;20228;-80
2022/04/01 12:00:46;;;;;;;0.37;0.37;;;3.80;99.90;;;;;;4999901;28;20250;-80
2022/04/01 12:03:12;;;;;;;0.30;0.30;;;3.50;99.90;;;;;;4982163;28;20185;-80
2022/04/01 12:05:41;;;;;;;0.60;0.60;;;3.90;99.90;;;;;;4986782;28;20181;-79
2022/04/01 12:10:52;;;;;;;0.30;0.30;;;3.70;99.90;;;;;;4991699;28;20296;-80
2022/04/01 12:13:18;;;;;;;0.30;0.30;;;3.50;99.90;;;;;;4988829;28;20209;-79
2022/04/01 12:15:46;;;;;;;0.57;0.57;;;3.70;99.90;;;;;;4988824;28;20234;-80
2022/04/01 12:18:17;;;;;;;0.10;0.10;;;3.70;99.90;;;;;;4991018;28;20199;-80
2022/04/01 12:20:45;;;;;;;0.10;0.10;;;3.60;99.90;;;;;;4992709;28;20577;-82
2022/04/01 12:23:11;;;;;;;0.13;0.13;;;3.50;99.90;;;;;;4990346;28;20216;-80
2022/04/01 12:25:39;;;;;;;0.47;0.47;;;3.80;99.90;;;;;;4989773;28;20204;-80
2022/04/01 12:28:07;;;;;;;0.47;0.20;;;3.70;99.90;;;;;;4990424;28;20255;-80
2022/04/01 12:30:36;;;;;;;0.20;0.20;;;3.50;99.90;;;;;;4989522;28;20191;-80
2022/04/01 12:33:06;;;;;;;0.50;0.50;;;3.30;99.90;;;;;;4981500;28;20189;-81
2022/04/01 12:35:47;;;;;;;0.23;0.23;;;3.30;99.90;;;;;;5005418;28;20193;-80
2022/04/01 12:38:12;;;;;;;0.53;0.53;;;3.10;99.90;;;;;;4989484;28;20181;-80
2022/04/01 12:40:44;;;;;;;0.40;0.40;;;3.00;99.90;;;;;;4989457;28;20212;-80
2022/04/01 12:43:33;;;;;;;1.13;1.03;;;2.80;99.90;;;;;;4989103;28;20176;-80
2022/04/01 12:46:03;;;;;;;0.57;0.43;;;2.90;99.90;;;;;;4989655;28;20180;-80
2022/04/01 12:48:30;;;;;;;0.30;0.30;;;2.80;99.90;;;;;;4989715;28;20185;-80
2022/04/01 12:50:58;;;;;;;0.30;0.30;;;2.90;99.90;;;;;;4990425;28;20238;-81
2022/04/01 12:53:24;;;;;;;0.47;0.47;;;2.80;99.90;;;;;;4988223;28;20208;-80
2022/04/01 12:55:51;;;;;;;0.53;0.53;;;3.10;99.90;;;;;;4990000;28;20208;-81
2022/04/01 12:58:17;;;;;;;0.30;0.30;;;3.20;99.90;;;;;;4987908;28;20185;-81
2022/04/01 13:00:43;;;;;;;1.30;1.20;;;3.00;99.90;;;;;;4988010;28;20199;-81
2022/04/01 13:03:09;;;;;;;0.37;0.37;;;3.10;99.90;;;;;;4987326;28;20224;-81
2022/04/01 13:05:35;;;;;;;0.40;0.40;;;2.90;99.90;;;;;;4987117;28;20268;-81
2022/04/01 13:08:00;;;;;;;0.10;0.10;;;2.90;99.90;;;;;;4988873;28;20191;-80
2022/04/01 13:10:27;;;;;;;0.20;0.20;;;2.90;99.90;;;;;;4986657;28;20191;-80
2022/04/01 13:12:55;;;;;;;0.27;0.27;;;2.80;99.90;;;;;;4986733;28;21585;-81
2022/04/01 13:15:27;;;;;;;0.73;0.43;;;2.90;99.90;;;;;;4988250;28;21300;-81
2022/04/01 13:17:59;;;;;;;0.30;0.20;;;3.00;99.90;;;;;;4987990;28;20190;-81
2022/04/01 13:20:32;;;;;;;0.30;0.30;;;3.10;99.90;;;;;;5001988;28;20215;-81
2022/04/01 13:23:00;;;;;;;0.40;0.40;;;3.00;99.90;;;;;;4985872;28;20180;-80
2022/04/01 13:25:27;;;;;;;0.73;0.20;;;2.80;99.90;;;;;;4985962;28;22071;-82